Time;durP1;ratioP1;P1;durP2;ratioP2;P2;SDS_P1;SDS_P2;PMS_P1;PMS_P2;Temp;Humidity;BMP_temperature;BMP_pressure;BME280_temperature;BME280_humidity;BME280_pressure;Samples;Min_cycle;Max_cycle;Signal;HPM_P1;HPM_P2
2021/05/27 00:00:37;;;;;;;57.37;2.37;;;9.20;1.00;;;;;;5135518;27;20474;-67
2021/05/27 00:03:04;;;;;;;57.67;2.43;;;9.20;1.00;;;;;;5135453;27;20885;-67
2021/05/27 00:05:31;;;;;;;57.43;2.50;;;9.20;1.00;;;;;;5135052;27;20471;-66
2021/05/27 00:07:58;;;;;;;57.23;2.30;;;9.10;1.00;;;;;;5135155;27;20448;-67
2021/05/27 00:10:28;;;;;;;57.40;2.47;;;9.20;1.00;;;;;;5135206;27;20446;-67
2021/05/27 00:12:54;;;;;;;57.43;2.30;;;9.20;1.00;;;;;;5134904;27;20463;-67
2021/05/27 00:15:23;;;;;;;57.27;2.50;;;9.20;1.00;;;;;;5134825;27;20529;-66
2021/05/27 00:17:49;;;;;;;57.37;2.40;;;9.10;1.00;;;;;;5135083;27;20520;-67
2021/05/27 00:20:16;;;;;;;57.37;2.50;;;9.10;1.00;;;;;;5134757;27;20487;-66
2021/05/27 00:22:43;;;;;;;57.47;2.47;;;9.10;1.00;;;;;;5134832;27;20563;-66
2021/05/27 00:25:12;;;;;;;57.07;2.20;;;9.10;1.00;;;;;;5134927;27;20454;-66
2021/05/27 00:27:38;;;;;;;57.47;2.37;;;9.10;1.00;;;;;;5134956;27;20522;-67
2021/05/27 00:30:06;;;;;;;57.60;2.70;;;9.10;1.00;;;;;;5134864;27;20837;-66
2021/05/27 00:32:33;;;;;;;57.37;2.40;;;9.10;1.00;;;;;;5134373;27;20472;-67
2021/05/27 00:34:59;;;;;;;57.53;2.40;;;9.20;1.00;;;;;;5134383;27;20478;-67
2021/05/27 00:37:26;;;;;;;57.67;2.50;;;9.10;1.00;;;;;;5134925;27;20473;-67
2021/05/27 00:39:52;;;;;;;57.20;2.47;;;9.20;1.00;;;;;;5133506;27;20511;-65
2021/05/27 00:42:19;;;;;;;57.47;2.50;;;9.20;1.00;;;;;;5134116;27;20976;-67
2021/05/27 00:44:58;;;;;;;57.40;2.40;;;9.20;1.00;;;;;;5134549;27;20447;-67
2021/05/27 00:47:24;;;;;;;57.60;2.30;;;9.20;1.00;;;;;;5134388;27;20455;-67
2021/05/27 00:49:50;;;;;;;57.60;2.30;;;9.20;1.00;;;;;;5134422;27;20452;-67
2021/05/27 00:52:17;;;;;;;57.43;2.40;;;9.20;1.00;;;;;;5134172;27;20904;-67
2021/05/27 00:54:43;;;;;;;57.37;2.37;;;9.20;1.00;;;;;;5134410;27;20453;-67
2021/05/27 00:57:17;;;;;;;57.37;2.50;;;9.20;1.00;;;;;;5134358;27;20539;-67
2021/05/27 00:59:45;;;;;;;57.37;2.30;;;9.20;1.00;;;;;;5134123;27;20850;-67
2021/05/27 01:02:11;;;;;;;57.33;2.23;;;9.10;1.00;;;;;;5133706;27;20592;-67
2021/05/27 01:04:38;;;;;;;57.17;2.30;;;9.10;1.00;;;;;;5134239;27;20528;-67
2021/05/27 01:07:04;;;;;;;57.10;2.30;;;9.10;1.00;;;;;;5134190;27;20450;-67
2021/05/27 01:09:30;;;;;;;57.37;2.50;;;9.10;1.00;;;;;;5133988;27;20535;-67
2021/05/27 01:11:56;;;;;;;57.33;2.30;;;9.10;1.00;;;;;;5133695;27;20526;-67
2021/05/27 01:17:05;;;;;;;57.47;2.30;;;9.10;1.00;;;;;;5133709;27;20484;-67
2021/05/27 01:19:31;;;;;;;57.37;2.30;;;9.10;1.00;;;;;;5133722;27;21005;-68
2021/05/27 01:21:59;;;;;;;57.53;2.33;;;9.10;1.00;;;;;;5133503;27;20987;-66
2021/05/27 01:24:25;;;;;;;58.20;2.37;;;9.10;1.00;;;;;;5133523;27;20536;-67
2021/05/27 01:26:51;;;;;;;57.40;2.20;;;9.10;1.00;;;;;;5133762;27;20550;-67
2021/05/27 01:29:18;;;;;;;57.17;2.40;;;9.10;1.00;;;;;;5133290;27;20545;-68
2021/05/27 01:31:44;;;;;;;57.37;2.30;;;9.10;1.00;;;;;;5133712;27;20663;-67
2021/05/27 01:34:10;;;;;;;57.20;2.10;;;9.10;1.00;;;;;;5133195;27;20451;-68
2021/05/27 01:36:37;;;;;;;57.60;2.77;;;9.10;1.00;;;;;;5133533;27;20490;-67
2021/05/27 01:39:10;;;;;;;57.60;2.50;;;9.10;1.00;;;;;;5133387;27;20565;-67
2021/05/27 01:41:36;;;;;;;57.37;2.20;;;9.10;1.00;;;;;;5133368;27;20458;-67
2021/05/27 01:44:03;;;;;;;57.30;2.20;;;9.10;1.00;;;;;;5132973;27;20482;-67
2021/05/27 01:46:30;;;;;;;57.33;2.20;;;9.10;1.00;;;;;;5133207;27;20544;-67
2021/05/27 01:48:56;;;;;;;57.27;2.30;;;9.10;1.00;;;;;;5133281;27;20451;-68
2021/05/27 01:51:22;;;;;;;57.10;2.30;;;9.10;1.00;;;;;;5132779;27;20542;-67
2021/05/27 01:59:47;;;;;;;57.40;2.20;;;9.10;1.00;;;;;;5008998;28;20519;-67
2021/05/27 02:02:13;;;;;;;57.60;2.50;;;9.00;1.00;;;;;;5012940;28;20477;-67
2021/05/27 02:04:39;;;;;;;57.17;2.40;;;9.00;1.00;;;;;;5013064;28;20463;-67
2021/05/27 02:07:10;;;;;;;57.10;2.10;;;9.00;1.00;;;;;;5012393;28;20476;-67
2021/05/27 02:09:36;;;;;;;57.67;2.47;;;9.00;1.00;;;;;;5012516;28;20448;-67
2021/05/27 02:12:03;;;;;;;57.40;2.30;;;9.00;1.00;;;;;;5012354;28;20587;-67
2021/05/27 02:14:29;;;;;;;57.37;2.20;;;9.00;1.00;;;;;;5012456;28;20537;-67
2021/05/27 02:16:56;;;;;;;57.37;2.50;;;9.00;1.00;;;;;;5011845;28;20566;-67
2021/05/27 02:19:23;;;;;;;57.53;2.33;;;8.90;1.00;;;;;;5012280;28;20496;-68
2021/05/27 02:21:49;;;;;;;57.37;2.70;;;8.90;1.00;;;;;;5012385;28;20477;-68
2021/05/27 02:24:16;;;;;;;57.43;2.40;;;8.90;1.00;;;;;;5012337;28;20541;-67
2021/05/27 02:26:42;;;;;;;57.50;2.60;;;8.90;1.00;;;;;;5011694;28;20504;-68
2021/05/27 02:29:09;;;;;;;57.70;2.70;;;8.90;1.00;;;;;;5012055;28;20533;-67
2021/05/27 02:31:36;;;;;;;57.37;2.23;;;8.90;1.00;;;;;;5012110;28;20495;-67
2021/05/27 02:34:03;;;;;;;57.37;2.40;;;8.90;1.00;;;;;;5012247;28;20445;-67
2021/05/27 02:36:30;;;;;;;57.40;2.17;;;8.80;1.00;;;;;;5011912;28;20825;-68
2021/05/27 02:38:57;;;;;;;57.37;2.30;;;8.90;1.00;;;;;;5011944;28;20493;-67
2021/05/27 02:41:24;;;;;;;57.40;2.40;;;8.90;1.00;;;;;;5012101;28;20889;-68
2021/05/27 02:43:51;;;;;;;57.30;2.30;;;8.80;1.00;;;;;;5011826;28;20547;-67
2021/05/27 02:46:18;;;;;;;57.70;2.50;;;8.90;1.00;;;;;;5012635;28;20542;-67
2021/05/27 02:48:45;;;;;;;57.47;2.53;;;8.80;1.00;;;;;;5011823;28;21038;-67
2021/05/27 02:51:12;;;;;;;57.60;2.57;;;8.80;1.00;;;;;;5012161;28;20451;-66
2021/05/27 02:53:38;;;;;;;57.40;2.23;;;8.80;1.00;;;;;;5011864;28;20452;-66
2021/05/27 02:56:05;;;;;;;57.27;2.30;;;8.80;1.00;;;;;;5011732;28;20492;-66
2021/05/27 02:58:31;;;;;;;57.17;2.00;;;8.80;1.00;;;;;;5011542;28;20501;-66
2021/05/27 03:00:58;;;;;;;57.40;2.23;;;8.80;1.00;;;;;;5011868;28;20873;-66
2021/05/27 03:03:24;;;;;;;57.57;2.33;;;8.80;1.00;;;;;;5013712;28;20931;-66
2021/05/27 03:05:52;;;;;;;57.40;2.53;;;8.80;1.00;;;;;;5015905;28;20494;-66
2021/05/27 03:08:19;;;;;;;57.47;2.60;;;8.80;1.00;;;;;;5015391;28;20501;-66
2021/05/27 03:10:46;;;;;;;57.47;2.47;;;8.80;1.00;;;;;;5015654;28;20532;-67
2021/05/27 03:13:12;;;;;;;57.53;2.57;;;8.80;1.00;;;;;;5015921;28;20832;-66
2021/05/27 03:15:39;;;;;;;57.50;2.43;;;8.80;1.00;;;;;;5015752;28;20894;-67
2021/05/27 03:18:07;;;;;;;57.40;2.37;;;8.70;1.00;;;;;;5015224;28;20473;-66
2021/05/27 03:20:35;;;;;;;57.57;2.67;;;8.70;1.00;;;;;;5015436;28;20978;-66
2021/05/27 03:23:02;;;;;;;57.47;2.70;;;8.70;1.00;;;;;;5015309;28;20538;-66
2021/05/27 03:25:29;;;;;;;57.37;2.40;;;8.70;1.00;;;;;;5015351;28;20447;-67
2021/05/27 03:27:56;;;;;;;57.57;2.50;;;8.70;1.00;;;;;;5015098;28;20503;-67
2021/05/27 03:30:23;;;;;;;58.07;3.23;;;8.70;1.00;;;;;;5015411;28;20452;-66
2021/05/27 03:32:49;;;;;;;57.30;2.80;;;8.60;1.00;;;;;;5015193;28;20538;-67
2021/05/27 03:35:16;;;;;;;57.50;2.60;;;8.60;1.00;;;;;;5015254;28;20471;-67
2021/05/27 03:37:42;;;;;;;58.73;3.43;;;8.50;1.00;;;;;;5014977;28;20583;-67
2021/05/27 03:40:11;;;;;;;57.80;3.13;;;8.50;1.00;;;;;;5014838;28;20480;-67
2021/05/27 03:42:39;;;;;;;57.37;3.40;;;8.40;1.00;;;;;;5015299;28;20455;-67
2021/05/27 03:45:07;;;;;;;57.60;2.53;;;8.40;1.00;;;;;;5015007;28;21026;-67
2021/05/27 03:47:33;;;;;;;57.90;2.60;;;8.40;1.00;;;;;;5014850;28;20896;-67
2021/05/27 03:50:00;;;;;;;57.50;2.73;;;8.40;1.00;;;;;;5014706;28;21066;-67
2021/05/27 03:52:26;;;;;;;57.60;2.60;;;8.30;1.00;;;;;;5015160;28;20531;-67
2021/05/27 03:54:52;;;;;;;57.77;2.73;;;8.30;1.00;;;;;;5014844;28;20946;-67
2021/05/27 03:57:19;;;;;;;57.50;2.70;;;8.30;1.00;;;;;;5014650;28;20489;-67
2021/05/27 04:02:30;;;;;;;57.27;2.60;;;8.30;1.00;;;;;;5014864;28;20433;-67
2021/05/27 04:07:41;;;;;;;57.57;2.50;;;8.20;1.00;;;;;;5014551;28;20823;-67
2021/05/27 04:10:09;;;;;;;57.50;2.50;;;8.10;1.00;;;;;;5014399;28;20451;-67
2021/05/27 04:12:46;;;;;;;57.70;2.50;;;8.10;1.00;;;;;;5014532;28;20996;-67
2021/05/27 04:15:25;;;;;;;57.27;2.60;;;8.10;1.00;;;;;;5014211;28;20547;-67
2021/05/27 04:17:56;;;;;;;57.33;2.40;;;8.10;1.00;;;;;;5014217;28;20483;-67
2021/05/27 04:20:25;;;;;;;57.47;2.40;;;8.00;1.00;;;;;;5014387;28;20545;-67
2021/05/27 04:22:52;;;;;;;57.37;2.50;;;8.00;1.00;;;;;;5014479;28;20487;-67
2021/05/27 04:25:19;;;;;;;57.47;2.40;;;8.00;1.00;;;;;;5014369;28;20490;-68
2021/05/27 04:27:46;;;;;;;57.37;2.47;;;8.00;1.00;;;;;;5013910;28;20555;-67
2021/05/27 04:30:16;;;;;;;57.27;2.27;;;8.00;1.00;;;;;;5014047;28;20952;-67
2021/05/27 04:33:03;;;;;;;57.57;2.87;;;8.00;1.00;;;;;;5014440;28;20456;-67
2021/05/27 04:35:32;;;;;;;57.47;2.53;;;8.00;1.00;;;;;;5013993;28;20461;-67
2021/05/27 04:38:01;;;;;;;57.67;2.80;;;8.00;1.00;;;;;;5013829;28;20564;-67
2021/05/27 04:40:28;;;;;;;57.43;2.40;;;8.00;1.00;;;;;;5014026;28;20610;-67
2021/05/27 04:42:54;;;;;;;57.90;2.70;;;8.00;1.00;;;;;;5014233;28;20929;-67
2021/05/27 04:45:22;;;;;;;57.70;2.40;;;8.00;1.00;;;;;;5014124;28;20577;-67
2021/05/27 04:47:49;;;;;;;58.50;2.93;;;8.00;1.00;;;;;;5013795;28;20922;-68
2021/05/27 04:50:15;;;;;;;57.50;2.63;;;8.00;1.00;;;;;;5013778;28;20579;-67
2021/05/27 04:52:42;;;;;;;57.27;2.60;;;8.00;1.00;;;;;;5013480;28;20716;-67
2021/05/27 04:55:12;;;;;;;57.47;2.50;;;8.10;1.00;;;;;;5013654;28;20543;-66
2021/05/27 04:57:38;;;;;;;57.47;2.77;;;8.10;1.00;;;;;;5013352;28;21061;-66
2021/05/27 05:00:08;;;;;;;57.40;2.50;;;8.10;1.00;;;;;;5013314;28;20496;-67
2021/05/27 05:02:35;;;;;;;57.57;2.60;;;8.10;1.40;;;;;;5013557;28;20534;-67
2021/05/27 05:05:02;;;;;;;57.40;2.60;;;8.20;2.70;;;;;;5013739;28;20539;-67
2021/05/27 05:07:28;;;;;;;57.47;2.37;;;8.30;6.10;;;;;;5013203;28;20486;-67
2021/05/27 05:09:55;;;;;;;57.27;2.60;;;8.50;9.00;;;;;;5013484;28;20476;-67
2021/05/27 05:12:21;;;;;;;57.33;2.50;;;8.60;9.20;;;;;;5013734;28;20539;-67
2021/05/27 05:14:47;;;;;;;57.50;2.50;;;8.80;9.40;;;;;;5013421;28;20547;-67
2021/05/27 05:17:14;;;;;;;57.73;2.63;;;8.90;8.70;;;;;;5013241;28;20568;-67
2021/05/27 05:19:41;;;;;;;57.57;2.43;;;9.10;9.30;;;;;;5013137;28;20568;-67
2021/05/27 05:22:07;;;;;;;57.33;2.50;;;9.30;9.90;;;;;;5013183;28;20488;-67
2021/05/27 05:24:34;;;;;;;57.17;2.47;;;9.40;10.00;;;;;;5013353;28;20500;-67
2021/05/27 05:27:01;;;;;;;57.27;2.43;;;9.50;8.70;;;;;;5012228;28;20499;-67
2021/05/27 05:29:28;;;;;;;57.17;2.30;;;9.50;6.10;;;;;;5013018;28;20495;-67
2021/05/27 05:31:54;;;;;;;57.17;2.50;;;9.50;4.30;;;;;;5013042;28;20458;-66
2021/05/27 05:34:20;;;;;;;57.27;2.60;;;9.50;1.70;;;;;;5013060;28;20531;-66
2021/05/27 05:36:48;;;;;;;57.47;2.90;;;9.50;1.00;;;;;;5012546;28;20474;-66
2021/05/27 05:39:14;;;;;;;57.27;2.60;;;9.40;1.00;;;;;;5013012;28;20584;-66
2021/05/27 05:41:41;;;;;;;57.37;2.67;;;9.40;1.00;;;;;;5012817;28;20459;-66
2021/05/27 05:44:07;;;;;;;57.27;2.80;;;9.50;1.00;;;;;;5012876;28;20453;-66
2021/05/27 05:46:34;;;;;;;57.30;2.50;;;9.60;1.00;;;;;;5012607;28;20457;-66
2021/05/27 05:49:00;;;;;;;57.40;2.50;;;9.80;1.00;;;;;;5012822;28;20456;-66
2021/05/27 05:51:26;;;;;;;57.20;3.47;;;10.00;1.00;;;;;;5012539;28;20475;-66
2021/05/27 05:53:54;;;;;;;57.23;2.47;;;10.20;1.00;;;;;;5012945;28;20471;-66
2021/05/27 05:56:20;;;;;;;57.47;3.17;;;10.30;1.00;;;;;;5012614;28;20484;-66
2021/05/27 05:58:46;;;;;;;57.33;2.90;;;10.50;1.00;;;;;;5012567;28;20556;-68
2021/05/27 06:01:14;;;;;;;57.27;2.60;;;10.60;1.00;;;;;;5012407;28;20552;-67
2021/05/27 06:03:40;;;;;;;57.37;2.97;;;10.70;1.00;;;;;;5012446;28;20453;-67
2021/05/27 06:06:09;;;;;;;57.67;2.60;;;10.80;1.00;;;;;;5012150;28;20866;-67
2021/05/27 06:08:36;;;;;;;57.83;2.60;;;10.80;1.00;;;;;;5012305;28;20981;-67
2021/05/27 06:11:04;;;;;;;57.40;2.70;;;10.80;1.00;;;;;;5012423;28;20495;-67
2021/05/27 06:13:30;;;;;;;57.37;2.40;;;10.70;1.00;;;;;;5012167;28;20446;-67
2021/05/27 06:15:56;;;;;;;57.30;2.33;;;10.60;1.00;;;;;;5012343;28;20908;-67
2021/05/27 06:18:24;;;;;;;58.63;3.00;;;10.50;1.00;;;;;;5011943;28;20564;-67
2021/05/27 06:20:50;;;;;;;57.30;2.63;;;10.40;1.00;;;;;;5012066;28;20521;-66
2021/05/27 06:23:16;;;;;;;56.97;2.50;;;10.30;1.00;;;;;;5012615;28;20452;-66
2021/05/27 06:25:43;;;;;;;57.23;2.40;;;10.20;1.00;;;;;;5012324;28;20541;-66
2021/05/27 06:28:10;;;;;;;57.40;2.33;;;10.10;1.00;;;;;;5011945;28;20476;-67
2021/05/27 06:30:36;;;;;;;59.30;2.97;;;10.00;1.00;;;;;;5012037;28;20445;-66
2021/05/27 06:33:03;;;;;;;57.23;2.60;;;10.10;1.00;;;;;;5012222;28;20496;-66
2021/05/27 06:35:30;;;;;;;57.17;2.33;;;10.10;1.00;;;;;;5012322;28;20461;-66
2021/05/27 06:37:59;;;;;;;57.47;2.60;;;10.10;1.00;;;;;;5011711;28;20461;-67
2021/05/27 06:40:27;;;;;;;57.40;2.70;;;10.10;1.00;;;;;;5011462;28;20497;-66
2021/05/27 06:42:53;;;;;;;57.60;2.40;;;10.10;1.00;;;;;;5011895;28;20453;-66
2021/05/27 06:45:22;;;;;;;57.30;2.40;;;10.10;1.00;;;;;;5011953;28;20919;-66
2021/05/27 06:47:49;;;;;;;57.80;2.97;;;10.20;1.00;;;;;;5011798;28;20557;-66
2021/05/27 06:50:16;;;;;;;58.23;2.90;;;10.30;1.00;;;;;;5011890;28;20442;-66
2021/05/27 06:52:58;;;;;;;57.20;2.50;;;10.40;1.00;;;;;;5012051;28;20450;-67
2021/05/27 06:55:24;;;;;;;57.37;2.50;;;10.50;1.00;;;;;;5011953;28;20528;-66
2021/05/27 06:57:51;;;;;;;57.20;2.50;;;10.70;1.00;;;;;;5011569;28;20577;-66
2021/05/27 07:00:20;;;;;;;57.37;2.60;;;10.90;1.00;;;;;;5011805;28;20940;-66
2021/05/27 07:02:47;;;;;;;57.17;2.40;;;11.00;1.00;;;;;;5011993;28;20453;-67
2021/05/27 07:05:14;;;;;;;57.70;2.60;;;11.00;1.00;;;;;;5011861;28;20446;-66
2021/05/27 07:07:40;;;;;;;57.27;2.60;;;11.10;1.00;;;;;;5011613;28;20481;-66
2021/05/27 07:10:08;;;;;;;57.17;2.37;;;11.20;1.00;;;;;;5011724;28;20445;-67
2021/05/27 07:12:34;;;;;;;57.33;2.27;;;11.40;1.00;;;;;;5011873;28;20541;-67
2021/05/27 07:15:01;;;;;;;58.00;2.20;;;11.50;1.00;;;;;;5011730;28;20956;-66
2021/05/27 07:17:27;;;;;;;57.03;2.10;;;11.60;1.00;;;;;;5011422;28;20531;-67
2021/05/27 07:19:54;;;;;;;57.37;2.70;;;11.70;1.00;;;;;;5011728;28;20517;-67
2021/05/27 07:22:21;;;;;;;57.40;2.33;;;11.70;1.00;;;;;;5011568;28;20976;-67
2021/05/27 07:24:48;;;;;;;57.30;2.20;;;11.90;1.00;;;;;;5009062;28;21007;-66
2021/05/27 07:27:14;;;;;;;57.10;2.10;;;12.00;1.00;;;;;;5010740;28;21011;-66
2021/05/27 07:29:42;;;;;;;59.27;2.50;;;12.00;1.00;;;;;;5011501;28;20447;-67
2021/05/27 07:32:09;;;;;;;57.57;2.30;;;12.10;1.00;;;;;;5011684;28;20537;-67
2021/05/27 07:34:37;;;;;;;57.10;2.30;;;12.30;1.00;;;;;;5011485;28;20542;-66
2021/05/27 07:37:05;;;;;;;57.80;2.70;;;12.30;1.00;;;;;;5011270;28;20901;-66
2021/05/27 07:39:31;;;;;;;57.20;2.47;;;12.40;1.00;;;;;;5009947;28;20486;-66
2021/05/27 07:41:57;;;;;;;57.03;2.30;;;12.30;1.00;;;;;;5011591;28;20540;-67
2021/05/27 07:44:24;;;;;;;57.17;2.33;;;12.30;1.00;;;;;;5011728;28;20532;-67
2021/05/27 07:46:50;;;;;;;57.47;2.50;;;12.20;1.00;;;;;;5011412;28;20568;-67
2021/05/27 07:49:16;;;;;;;57.30;2.30;;;12.30;1.00;;;;;;5012639;28;20503;-67
2021/05/27 07:51:44;;;;;;;57.20;2.43;;;12.30;1.00;;;;;;5014974;28;20540;-67
2021/05/27 07:54:11;;;;;;;57.17;2.50;;;12.50;1.00;;;;;;5014702;28;20535;-67
2021/05/27 07:56:37;;;;;;;57.13;2.20;;;12.60;1.00;;;;;;5015038;28;20453;-67
2021/05/27 07:59:04;;;;;;;57.30;2.30;;;12.70;1.00;;;;;;5014606;28;20573;-67
2021/05/27 08:01:30;;;;;;;56.97;2.40;;;12.70;1.00;;;;;;5014869;28;20450;-67
2021/05/27 08:03:56;;;;;;;57.30;2.37;;;12.50;1.00;;;;;;5015087;28;20536;-67
2021/05/27 08:06:23;;;;;;;57.30;2.30;;;12.50;1.00;;;;;;5014582;28;20540;-67
2021/05/27 08:08:49;;;;;;;57.50;2.40;;;12.50;1.00;;;;;;5012933;28;20802;-67
2021/05/27 08:11:17;;;;;;;57.03;2.20;;;12.50;1.00;;;;;;5014601;28;20454;-67
2021/05/27 08:13:43;;;;;;;57.20;2.30;;;12.60;1.00;;;;;;5014402;28;20478;-66
2021/05/27 08:16:10;;;;;;;56.80;2.37;;;12.80;1.00;;;;;;5014416;28;20453;-67
2021/05/27 08:18:36;;;;;;;57.27;2.67;;;13.00;1.00;;;;;;5014277;28;20474;-67
2021/05/27 08:21:02;;;;;;;57.90;2.60;;;13.40;1.00;;;;;;5014319;28;20492;-67
2021/05/27 08:23:29;;;;;;;57.13;2.27;;;13.70;1.00;;;;;;5014261;28;20831;-67
2021/05/27 08:25:55;;;;;;;57.33;2.50;;;13.80;1.00;;;;;;5014282;28;20490;-67
2021/05/27 08:28:22;;;;;;;57.20;2.50;;;13.60;1.00;;;;;;5014228;28;20525;-67
2021/05/27 08:30:48;;;;;;;57.23;2.37;;;13.50;1.00;;;;;;5014056;28;20472;-67
2021/05/27 08:33:15;;;;;;;57.37;2.50;;;13.50;1.00;;;;;;5014237;28;20884;-67
2021/05/27 08:35:41;;;;;;;57.20;2.30;;;13.50;1.00;;;;;;5013921;28;20541;-67
2021/05/27 08:38:08;;;;;;;56.97;2.20;;;13.60;1.00;;;;;;5013592;28;20466;-67
2021/05/27 08:40:35;;;;;;;57.67;2.47;;;13.90;1.00;;;;;;5012882;28;20487;-67
2021/05/27 08:43:01;;;;;;;56.93;2.20;;;14.20;1.00;;;;;;5013841;28;20449;-66
2021/05/27 08:45:32;;;;;;;57.07;2.50;;;14.30;1.00;;;;;;5013903;28;20449;-66
2021/05/27 08:47:59;;;;;;;57.17;2.20;;;14.50;1.00;;;;;;5013526;28;20495;-67
2021/05/27 08:50:30;;;;;;;57.07;2.40;;;14.50;1.00;;;;;;5013519;28;20445;-66
2021/05/27 08:52:56;;;;;;;57.20;2.20;;;14.50;1.00;;;;;;5013735;28;20952;-65
2021/05/27 08:55:23;;;;;;;57.50;2.70;;;14.60;1.00;;;;;;5014002;28;20537;-67
2021/05/27 08:57:49;;;;;;;57.50;2.40;;;14.60;1.00;;;;;;5013526;28;20474;-67
2021/05/27 09:00:17;;;;;;;57.37;2.40;;;14.60;1.00;;;;;;5012333;28;20496;-67
2021/05/27 09:02:55;;;;;;;57.33;2.43;;;14.60;1.00;;;;;;5013463;28;20828;-67
2021/05/27 09:05:22;;;;;;;57.17;2.20;;;14.80;1.00;;;;;;5013495;28;20450;-67
2021/05/27 09:07:49;;;;;;;56.97;2.30;;;14.90;1.00;;;;;;5013351;28;20472;-66
2021/05/27 09:10:15;;;;;;;57.00;2.40;;;15.10;1.00;;;;;;5013412;28;20446;-66
2021/05/27 09:12:42;;;;;;;57.50;2.30;;;15.30;1.00;;;;;;5011964;28;20454;-67
2021/05/27 09:15:22;;;;;;;57.07;2.20;;;15.60;1.00;;;;;;5013261;28;20937;-66
2021/05/27 09:17:51;;;;;;;57.27;2.60;;;15.70;1.00;;;;;;5012938;28;20471;-65
2021/05/27 09:20:20;;;;;;;57.07;2.47;;;15.60;1.00;;;;;;5013184;28;20491;-66
2021/05/27 09:22:47;;;;;;;57.30;2.33;;;15.60;1.00;;;;;;5012968;28;20451;-67
2021/05/27 09:25:31;;;;;;;57.20;2.20;;;15.50;1.00;;;;;;5013389;28;20542;-66
2021/05/27 09:27:59;;;;;;;57.57;2.47;;;15.50;1.00;;;;;;5013047;28;21033;-65
2021/05/27 09:30:25;;;;;;;56.73;2.10;;;15.60;1.00;;;;;;5013057;28;20443;-68
2021/05/27 09:32:53;;;;;;;57.20;2.20;;;15.50;1.00;;;;;;5012951;28;20537;-67
2021/05/27 09:35:21;;;;;;;57.30;2.20;;;15.30;1.00;;;;;;5012888;28;20535;-66
2021/05/27 09:37:50;;;;;;;57.00;2.50;;;15.10;1.00;;;;;;5012564;28;20471;-64
2021/05/27 09:40:38;;;;;;;57.20;2.50;;;14.90;1.00;;;;;;5012617;28;20478;-66
2021/05/27 09:43:06;;;;;;;56.93;2.40;;;14.90;1.00;;;;;;5003636;28;20896;-66
2021/05/27 09:45:34;;;;;;;57.60;2.27;;;15.00;1.00;;;;;;5003441;28;20871;-66
2021/05/27 09:48:22;;;;;;;57.40;2.30;;;15.20;1.00;;;;;;5012342;28;20466;-66
2021/05/27 09:50:49;;;;;;;57.00;2.27;;;15.40;1.00;;;;;;5012666;28;20448;-66
2021/05/27 09:53:19;;;;;;;56.87;2.23;;;15.70;1.00;;;;;;5012859;28;20464;-66
2021/05/27 09:55:46;;;;;;;56.87;2.10;;;16.10;1.00;;;;;;5012808;28;20551;-66
2021/05/27 09:58:13;;;;;;;57.27;2.40;;;16.30;1.00;;;;;;5012451;28;20472;-65
2021/05/27 10:00:42;;;;;;;57.57;2.93;;;16.50;1.00;;;;;;5012387;28;20583;-66
2021/05/27 10:03:31;;;;;;;57.17;2.57;;;16.70;1.00;;;;;;5012488;28;20939;-66
2021/05/27 10:06:00;;;;;;;57.03;2.27;;;16.60;1.00;;;;;;5012651;28;20449;-65
2021/05/27 10:08:29;;;;;;;57.07;2.27;;;16.30;1.00;;;;;;5012412;28;20486;-66
2021/05/27 10:10:55;;;;;;;57.50;2.50;;;16.00;1.00;;;;;;5012516;28;20935;-67
2021/05/27 10:13:26;;;;;;;56.87;2.27;;;15.70;1.00;;;;;;5011367;28;20532;-66
2021/05/27 10:15:53;;;;;;;57.17;2.20;;;15.50;1.00;;;;;;5012380;28;20547;-66
2021/05/27 10:18:21;;;;;;;57.37;2.20;;;15.30;1.00;;;;;;5012161;28;20510;-66
2021/05/27 10:20:49;;;;;;;57.13;2.60;;;15.10;1.00;;;;;;5012435;28;20514;-65
2021/05/27 10:23:17;;;;;;;57.23;2.23;;;15.00;1.00;;;;;;5012195;28;20451;-67
2021/05/27 10:25:45;;;;;;;57.20;2.30;;;14.90;1.00;;;;;;5012151;28;20443;-66
2021/05/27 10:28:15;;;;;;;57.20;2.30;;;15.00;1.00;;;;;;5012204;28;20482;-67
2021/05/27 10:30:43;;;;;;;57.17;2.20;;;15.20;1.00;;;;;;5011956;28;20811;-67
2021/05/27 10:33:17;;;;;;;57.17;2.30;;;15.20;1.00;;;;;;5011968;28;20494;-67
2021/05/27 10:35:49;;;;;;;57.23;2.20;;;15.10;1.00;;;;;;5012321;28;20462;-67
2021/05/27 10:38:18;;;;;;;57.17;2.37;;;15.00;1.00;;;;;;5011700;28;20474;-67
2021/05/27 10:40:49;;;;;;;57.07;2.20;;;14.80;1.00;;;;;;5011807;28;20577;-67
2021/05/27 10:43:16;;;;;;;57.10;2.30;;;14.70;1.00;;;;;;5012304;28;20452;-67
2021/05/27 10:46:03;;;;;;;57.17;2.20;;;14.80;1.00;;;;;;5010961;28;20460;-67
2021/05/27 10:48:32;;;;;;;57.33;2.40;;;15.10;1.00;;;;;;5011571;28;21008;-67
2021/05/27 10:51:07;;;;;;;57.03;2.50;;;15.40;1.00;;;;;;5012090;28;20482;-67
2021/05/27 10:53:57;;;;;;;57.17;2.20;;;15.90;1.00;;;;;;5012243;28;20439;-67
2021/05/27 10:56:44;;;;;;;57.17;2.50;;;16.30;1.00;;;;;;5011534;28;20455;-67
2021/05/27 10:59:13;;;;;;;57.20;2.30;;;16.50;1.00;;;;;;5011608;28;20467;-67
2021/05/27 11:01:59;;;;;;;57.57;2.30;;;16.70;1.00;;;;;;5011729;28;20485;-67
2021/05/27 11:04:33;;;;;;;56.87;2.60;;;16.90;1.00;;;;;;5012089;28;20463;-67
2021/05/27 11:07:20;;;;;;;57.60;2.30;;;17.20;1.00;;;;;;5011578;28;20513;-67
2021/05/27 11:09:49;;;;;;;57.37;2.37;;;17.60;1.00;;;;;;5011738;28;20453;-67
2021/05/27 11:12:21;;;;;;;58.20;2.43;;;18.20;1.00;;;;;;5011719;28;20457;-67
2021/05/27 11:15:07;;;;;;;57.47;2.60;;;18.80;1.00;;;;;;5011897;28;20446;-67
2021/05/27 11:17:34;;;;;;;57.33;2.20;;;19.70;1.00;;;;;;5010308;28;20480;-68
2021/05/27 11:20:04;;;;;;;57.23;2.27;;;20.30;1.00;;;;;;5011547;28;20526;-67
2021/05/27 11:22:45;;;;;;;57.90;2.67;;;21.20;1.00;;;;;;5011562;28;20456;-67
2021/05/27 11:25:45;;;;;;;57.17;2.30;;;22.00;1.00;;;;;;5014710;28;20449;-67
2021/05/27 11:28:36;;;;;;;57.30;2.20;;;22.70;1.00;;;;;;5015190;28;20466;-67
2021/05/27 11:31:05;;;;;;;57.37;2.30;;;22.30;1.00;;;;;;5015276;28;20450;-67
2021/05/27 11:33:41;;;;;;;57.17;2.27;;;22.40;1.00;;;;;;5015135;28;20458;-67
2021/05/27 11:36:15;;;;;;;57.30;2.53;;;23.00;1.00;;;;;;5015177;28;20544;-67
2021/05/27 11:38:42;;;;;;;57.07;2.10;;;23.60;1.00;;;;;;5014367;28;20473;-67
2021/05/27 11:41:11;;;;;;;57.43;2.20;;;24.10;1.00;;;;;;5014806;28;20492;-67
2021/05/27 11:43:39;;;;;;;57.17;2.20;;;24.60;1.00;;;;;;5014886;28;20838;-67
2021/05/27 11:46:07;;;;;;;57.40;2.20;;;23.60;1.00;;;;;;5015299;28;20872;-67
2021/05/27 11:48:36;;;;;;;57.30;2.20;;;22.40;1.00;;;;;;5013707;28;20501;-67
2021/05/27 11:51:05;;;;;;;57.30;2.40;;;21.50;1.00;;;;;;5005433;28;20501;-67
2021/05/27 11:53:47;;;;;;;56.93;2.20;;;21.20;1.00;;;;;;4996641;28;20469;-67
2021/05/27 11:56:31;;;;;;;57.17;2.10;;;22.60;1.00;;;;;;5007405;28;20453;-67
2021/05/27 11:58:58;;;;;;;56.93;2.10;;;23.60;1.00;;;;;;4993337;28;20843;-67
2021/05/27 12:01:25;;;;;;;57.03;2.30;;;23.20;1.00;;;;;;4994768;28;20494;-67
2021/05/27 12:04:02;;;;;;;57.40;2.00;;;22.30;1.00;;;;;;4994292;28;20901;-67
2021/05/27 12:06:28;;;;;;;57.20;2.17;;;21.40;1.00;;;;;;4994823;28;20434;-67
2021/05/27 12:08:55;;;;;;;57.47;2.50;;;20.60;1.00;;;;;;4995491;28;20514;-67
2021/05/27 12:11:32;;;;;;;56.97;2.20;;;20.70;1.00;;;;;;4994068;28;20511;-66
2021/05/27 12:13:59;;;;;;;57.17;2.10;;;21.80;1.00;;;;;;4994858;28;20454;-66
2021/05/27 12:16:33;;;;;;;57.07;2.20;;;22.80;1.00;;;;;;4994580;28;20525;-67
2021/05/27 12:19:01;;;;;;;57.20;2.20;;;22.80;1.00;;;;;;4994088;28;21023;-67
2021/05/27 12:21:27;;;;;;;57.17;2.00;;;22.80;1.00;;;;;;4993525;28;20491;-66
2021/05/27 12:23:54;;;;;;;56.87;2.00;;;22.70;1.00;;;;;;4993400;28;20508;-66
2021/05/27 12:26:20;;;;;;;57.30;2.27;;;22.70;1.00;;;;;;5001780;28;20452;-66
2021/05/27 12:28:48;;;;;;;62.50;2.83;;;22.50;1.00;;;;;;5000994;28;20892;-66
2021/05/27 12:31:14;;;;;;;57.20;2.03;;;22.60;1.00;;;;;;4992863;28;20455;-66
2021/05/27 12:33:41;;;;;;;57.13;2.20;;;22.70;1.00;;;;;;4993194;28;20993;-67
2021/05/27 12:36:09;;;;;;;56.97;2.20;;;22.20;1.00;;;;;;4993616;28;20963;-67
2021/05/27 12:38:44;;;;;;;56.90;2.37;;;21.80;1.00;;;;;;4994571;28;20536;-66
2021/05/27 12:41:11;;;;;;;56.97;1.97;;;21.70;1.00;;;;;;4994232;28;20582;-66
2021/05/27 12:43:40;;;;;;;57.07;1.90;;;22.10;1.00;;;;;;4994371;28;20451;-65
2021/05/27 12:46:09;;;;;;;57.30;2.20;;;22.30;1.00;;;;;;4994137;28;20450;-66
2021/05/27 12:48:47;;;;;;;57.37;2.30;;;22.10;1.00;;;;;;4994104;28;20474;-66
2021/05/27 12:51:14;;;;;;;56.87;2.03;;;21.90;1.00;;;;;;4994165;28;20443;-66
2021/05/27 12:53:41;;;;;;;56.87;2.00;;;21.70;1.00;;;;;;4994501;28;20605;-66
2021/05/27 12:56:14;;;;;;;57.27;2.10;;;21.20;1.00;;;;;;4994330;28;21088;-66
2021/05/27 12:58:42;;;;;;;57.07;2.40;;;20.80;1.00;;;;;;4994216;28;20601;-65
2021/05/27 13:01:11;;;;;;;57.03;2.30;;;20.30;1.00;;;;;;5013819;28;20576;-66
2021/05/27 13:03:46;;;;;;;57.33;2.60;;;20.10;1.00;;;;;;5013481;28;20499;-66
2021/05/27 13:06:14;;;;;;;57.20;2.27;;;20.00;1.00;;;;;;5013524;28;20455;-65
2021/05/27 13:08:41;;;;;;;57.27;2.00;;;19.90;1.00;;;;;;5013268;28;20470;-66
2021/05/27 13:11:18;;;;;;;57.57;2.27;;;19.80;1.00;;;;;;5013466;28;20550;-66